Huvudsida
METAR-TAF:

METAR-TAF

Flygplatser :

Gwalior Airport

Gwalior, Indien

latitud: 26-17-36N, longitud: 78-13-40E, höjd: 188 m

Aktuellt väderrapport

Denna rapport gjordes för 14 timmar och 12 minuter sedan, klockan 06:00 UTC
Vind 4 kt från ost
Temperatur 42°C
Fuktighet 29%
Tryck 1001 hPa
Sikt: 6000 m
Klar himmel

METAR: VIGR 250600Z 09004KT 6000 SKC 42/20 Q1001 NOSIG

Tid: 01:42 (20:12 UTC)

Väderprognos

Denna rapport gjordes för 10 timmar och 42 minuter sedan, klockan 09:30 UTC
Prognos gäller från 25 kl. 12 UTC till 25 kl. 24 UTC
Vind 10 kt från nordost
Sikt: 6000 m
Få moln på en höjd av 3000 ft
Temporärt
från 25 kl. 22 UTC till 25 kl. 24 UTC
Vind 5 kt från nord/nordost
Sikt: 5000 m
Få moln på en höjd av 3000 ft
torrdis,

TAF: VIGR 250930Z 2512/2524 05010KT 6000 FEW030 TEMPO 2522/2524 02005KT 5000 HZ FEW030

Aktuella väderrapporter och prognoser från 4000 flygplatser (METAR- och TAF-rapporter).

De tillgängliga stationerna syns som gula och röda prickar på kartan.

För musen över prickarna för att se namnen på stationerna.

Klicka sedan för att få väderrapporter och prognoser.

För att ändra kartan: Klicka på de gröna knapparna med ett svart kors på för att zooma in; den gröna knappen med ett streck på för att zooma ut; eller på de gröna pilarna för angränsande kartor.


METAR-TAF: